Time;durP1;ratioP1;P1;durP2;ratioP2;P2;SDS_P1;SDS_P2;PMS_P1;PMS_P2;Temp;Humidity;BMP_temperature;BMP_pressure;BME280_temperature;BME280_humidity;BME280_pressure;Samples;Min_cycle;Max_cycle;Signal;HPM_P1;HPM_P2
2023/10/03 00:00:55;;;;;;;;;;;21.00;70.30;;;;;;5025833;28;1309;-67
2023/10/03 00:03:20;;;;;;;;;;;21.00;70.30;;;;;;5038031;28;1906;-67
2023/10/03 00:05:46;;;;;;;;;;;21.00;70.30;;;;;;5037655;28;1440;-67
2023/10/03 00:08:13;;;;;;;;;;;21.00;70.30;;;;;;5042698;28;1408;-67
2023/10/03 00:10:39;;;;;;;;;;;21.00;70.30;;;;;;5025389;28;1387;-67
2023/10/03 00:13:07;;;;;;;;;;;21.00;70.30;;;;;;5024329;28;1272;-67
2023/10/03 00:15:33;;;;;;;;;;;21.00;70.30;;;;;;5025438;28;1275;-67
2023/10/03 00:17:59;;;;;;;;;;;21.00;70.30;;;;;;5037405;28;1508;-67
2023/10/03 00:20:24;;;;;;;;;;;21.00;70.30;;;;;;5037989;28;1549;-67
2023/10/03 00:22:50;;;;;;;;;;;21.00;70.30;;;;;;5040558;28;1922;-67
2023/10/03 00:25:19;;;;;;;;;;;21.00;70.30;;;;;;5039684;28;1486;-67
2023/10/03 00:27:50;;;;;;;;;;;21.00;70.30;;;;;;5021496;28;1380;-67
2023/10/03 00:30:19;;;;;;;;;;;21.00;70.40;;;;;;5038049;28;1584;-67
2023/10/03 00:32:45;;;;;;;;;;;21.00;70.40;;;;;;5021963;28;1496;-67
2023/10/03 00:35:11;;;;;;;;;;;21.00;70.40;;;;;;5042917;28;1308;-67
2023/10/03 00:37:37;;;;;;;;;;;21.00;70.40;;;;;;5040459;28;1406;-67
2023/10/03 00:40:27;;;;;;;;;;;21.00;70.40;;;;;;5047459;28;1344;-67
2023/10/03 00:43:01;;;;;;;;;;;21.00;70.40;;;;;;5043361;28;1910;-67
2023/10/03 00:45:29;;;;;;;;;;;21.00;70.40;;;;;;5040950;28;2016;-67
2023/10/03 00:47:55;;;;;;;;;;;21.00;70.40;;;;;;5041808;28;1387;-67
2023/10/03 00:50:25;;;;;;;;;;;21.00;70.40;;;;;;5041398;28;1534;-67
2023/10/03 00:52:55;;;;;;;;;;;21.00;70.40;;;;;;5024211;28;1390;-67
2023/10/03 00:55:27;;;;;;;;;;;21.00;70.40;;;;;;5038600;28;1390;-67
2023/10/03 01:00:49;;;;;;;;;;;21.00;70.40;;;;;;5009690;28;1319;-67
2023/10/03 01:03:31;;;;;;;;;;;21.00;70.40;;;;;;5040439;28;1911;-67
2023/10/03 01:06:08;;;;;;;;;;;21.00;70.40;;;;;;5039285;28;1468;-67
2023/10/03 01:08:41;;;;;;;;;;;21.00;70.40;;;;;;5041025;28;1320;-67
2023/10/03 01:11:07;;;;;;;;;;;21.00;70.40;;;;;;5038593;28;1229;-67
2023/10/03 01:13:33;;;;;;;;;;;21.00;70.40;;;;;;5045406;28;1321;-67
2023/10/03 01:15:59;;;;;;;;;;;21.00;70.50;;;;;;5043747;28;1454;-67
2023/10/03 01:18:26;;;;;;;;;;;21.00;70.50;;;;;;5036939;28;1447;-67
2023/10/03 01:20:55;;;;;;;;;;;21.00;70.50;;;;;;5026341;28;1341;-67
2023/10/03 01:23:21;;;;;;;;;;;21.00;70.50;;;;;;5043096;28;1918;-68
2023/10/03 01:25:47;;;;;;;;;;;21.00;70.50;;;;;;5024488;28;1328;-68
2023/10/03 01:28:12;;;;;;;;;;;21.00;70.50;;;;;;5035348;28;1456;-67
2023/10/03 01:30:41;;;;;;;;;;;21.00;70.50;;;;;;5040797;28;1178;-67
2023/10/03 01:33:06;;;;;;;;;;;21.00;70.50;;;;;;5038930;28;1303;-67
2023/10/03 01:35:32;;;;;;;;;;;21.00;70.50;;;;;;5027867;28;1038;-67
2023/10/03 01:37:57;;;;;;;;;;;21.00;70.60;;;;;;5045587;28;1382;-68
2023/10/03 01:40:23;;;;;;;;;;;21.00;70.50;;;;;;5028687;28;1447;-67
2023/10/03 01:42:48;;;;;;;;;;;21.00;70.50;;;;;;5045351;28;1918;-67
2023/10/03 01:45:17;;;;;;;;;;;21.00;70.50;;;;;;5043076;28;1081;-67
2023/10/03 01:47:45;;;;;;;;;;;21.00;70.50;;;;;;5027713;28;1318;-67
2023/10/03 01:50:11;;;;;;;;;;;21.00;70.60;;;;;;5047718;28;950;-67
2023/10/03 01:52:37;;;;;;;;;;;21.00;70.60;;;;;;5041811;28;954;-67
2023/10/03 01:55:03;;;;;;;;;;;21.00;70.50;;;;;;5041067;28;1134;-67
2023/10/03 01:57:28;;;;;;;;;;;21.00;70.60;;;;;;5027368;28;1296;-67
2023/10/03 01:59:55;;;;;;;;;;;21.00;70.60;;;;;;5033923;28;1257;-67
2023/10/03 02:02:20;;;;;;;;;;;21.00;70.50;;;;;;5041242;28;2044;-67
2023/10/03 02:04:46;;;;;;;;;;;21.00;70.50;;;;;;5043931;28;1449;-67
2023/10/03 02:07:12;;;;;;;;;;;21.00;70.80;;;;;;5025688;28;1562;-67
2023/10/03 02:09:37;;;;;;;;;;;21.00;70.70;;;;;;5045063;28;1187;-67
2023/10/03 02:12:04;;;;;;;;;;;21.10;70.80;;;;;;5044205;28;1463;-67
2023/10/03 02:14:30;;;;;;;;;;;21.10;70.70;;;;;;5045605;28;1427;-67
2023/10/03 02:16:55;;;;;;;;;;;21.10;70.70;;;;;;5042921;28;1366;-67
2023/10/03 02:19:21;;;;;;;;;;;21.10;70.70;;;;;;5045852;28;1599;-67
2023/10/03 02:21:47;;;;;;;;;;;21.20;70.80;;;;;;5054145;22;2170;-65
2023/10/03 02:24:13;;;;;;;;;;;21.20;70.90;;;;;;5063765;28;1266;-65
2023/10/03 02:26:41;;;;;;;;;;;21.20;70.80;;;;;;5063162;28;1298;-65
2023/10/03 02:29:06;;;;;;;;;;;21.20;70.70;;;;;;5062303;28;1705;-65
2023/10/03 02:31:33;;;;;;;;;;;21.20;71.50;;;;;;5061996;28;1386;-65
2023/10/03 02:33:59;;;;;;;;;;;21.30;70.90;;;;;;5062585;28;1277;-65
2023/10/03 02:36:24;;;;;;;;;;;21.30;70.80;;;;;;5064144;28;1392;-65
2023/10/03 02:38:50;;;;;;;;;;;21.30;70.80;;;;;;5044821;28;1368;-65
2023/10/03 02:41:16;;;;;;;;;;;21.30;70.80;;;;;;5062165;28;1314;-65
2023/10/03 02:43:46;;;;;;;;;;;21.30;70.80;;;;;;5059439;28;1953;-65
2023/10/03 02:46:12;;;;;;;;;;;21.30;70.80;;;;;;5059114;28;1314;-65
2023/10/03 02:48:38;;;;;;;;;;;21.30;70.90;;;;;;5059183;28;1243;-65
2023/10/03 02:51:05;;;;;;;;;;;21.30;70.90;;;;;;5061279;28;1237;-65
2023/10/03 02:53:31;;;;;;;;;;;21.30;70.90;;;;;;5059374;28;1282;-65
2023/10/03 02:55:58;;;;;;;;;;;21.30;70.90;;;;;;5059023;28;1037;-65
2023/10/03 02:58:23;;;;;;;;;;;21.30;70.90;;;;;;5059049;28;1244;-65
2023/10/03 03:00:53;;;;;;;;;;;21.30;70.90;;;;;;5041982;28;1297;-65
2023/10/03 03:03:19;;;;;;;;;;;21.30;71.00;;;;;;5042724;28;1914;-65
2023/10/03 03:05:44;;;;;;;;;;;21.30;71.00;;;;;;5058687;28;1382;-65
2023/10/03 03:11:05;;;;;;;;;;;21.30;71.00;;;;;;5044376;28;1294;-66
2023/10/03 03:13:31;;;;;;;;;;;21.30;71.00;;;;;;5062256;28;1341;-65
2023/10/03 03:16:00;;;;;;;;;;;21.30;71.00;;;;;;5043288;28;1478;-65
2023/10/03 03:18:32;;;;;;;;;;;21.30;71.00;;;;;;5060646;28;1641;-65
2023/10/03 03:20:57;;;;;;;;;;;21.30;71.00;;;;;;5060746;28;1239;-65
2023/10/03 03:23:36;;;;;;;;;;;21.30;71.10;;;;;;5065251;28;1902;-65
2023/10/03 03:26:14;;;;;;;;;;;21.30;71.10;;;;;;5059526;28;1418;-65
2023/10/03 03:28:40;;;;;;;;;;;21.30;71.20;;;;;;5045770;28;1568;-65
2023/10/03 03:31:09;;;;;;;;;;;21.30;71.20;;;;;;5057044;28;1482;-65
2023/10/03 03:33:35;;;;;;;;;;;21.30;71.30;;;;;;5048556;28;1400;-65
2023/10/03 03:36:01;;;;;;;;;;;21.30;71.30;;;;;;5061665;28;1350;-65
2023/10/03 03:38:27;;;;;;;;;;;21.30;71.30;;;;;;5059686;28;1526;-65
2023/10/03 03:40:59;;;;;;;;;;;21.30;71.40;;;;;;5064131;28;1478;-65
2023/10/03 03:43:25;;;;;;;;;;;21.40;71.50;;;;;;5028707;28;1906;-65
2023/10/03 03:45:51;;;;;;;;;;;21.40;71.70;;;;;;5058850;28;1574;-66
2023/10/03 03:48:19;;;;;;;;;;;21.40;71.80;;;;;;5059423;28;1558;-65
2023/10/03 03:50:44;;;;;;;;;;;21.40;71.70;;;;;;5039973;28;1359;-65
2023/10/03 03:53:10;;;;;;;;;;;21.40;71.80;;;;;;5060637;28;1579;-65
2023/10/03 03:55:37;;;;;;;;;;;21.40;71.80;;;;;;5057934;28;1330;-65
2023/10/03 03:58:05;;;;;;;;;;;21.40;71.80;;;;;;5040175;28;1297;-65
2023/10/03 04:00:32;;;;;;;;;;;21.40;71.60;;;;;;5061310;28;1228;-65
2023/10/03 04:02:59;;;;;;;;;;;21.40;71.60;;;;;;5059463;28;1959;-65
2023/10/03 04:05:25;;;;;;;;;;;21.40;71.50;;;;;;5060557;28;1314;-66
2023/10/03 04:07:51;;;;;;;;;;;21.40;71.50;;;;;;5042350;28;1351;-66
2023/10/03 04:10:16;;;;;;;;;;;21.50;71.70;;;;;;5059952;28;1458;-65
2023/10/03 04:12:42;;;;;;;;;;;21.40;71.70;;;;;;5056294;28;1272;-66
2023/10/03 04:15:14;;;;;;;;;;;21.50;71.80;;;;;;5040521;28;1327;-66
2023/10/03 04:17:40;;;;;;;;;;;21.50;71.80;;;;;;5058069;28;1251;-66
2023/10/03 04:20:19;;;;;;;;;;;21.50;71.80;;;;;;5062235;28;1231;-66
2023/10/03 04:22:48;;;;;;;;;;;21.40;71.70;;;;;;5045685;28;1902;-66
2023/10/03 04:25:14;;;;;;;;;;;21.50;71.80;;;;;;5058397;28;1237;-66
2023/10/03 04:27:40;;;;;;;;;;;21.50;71.80;;;;;;5061435;28;1553;-65
2023/10/03 04:30:09;;;;;;;;;;;21.50;71.90;;;;;;5058023;28;1518;-65
2023/10/03 04:32:34;;;;;;;;;;;21.50;71.90;;;;;;5059629;28;1503;-65
2023/10/03 04:35:00;;;;;;;;;;;21.50;72.30;;;;;;5060663;28;1364;-65
2023/10/03 04:37:25;;;;;;;;;;;21.50;72.20;;;;;;5058840;28;1562;-65
2023/10/03 04:39:51;;;;;;;;;;;21.50;72.00;;;;;;5059316;28;1070;-65
2023/10/03 04:42:17;;;;;;;;;;;21.50;71.90;;;;;;5060028;28;1902;-65
2023/10/03 04:44:42;;;;;;;;;;;21.50;71.90;;;;;;5040214;28;1313;-65
2023/10/03 04:47:11;;;;;;;;;;;21.50;71.80;;;;;;5057542;28;1279;-65
2023/10/03 04:49:37;;;;;;;;;;;21.50;71.80;;;;;;5059381;28;1301;-65
2023/10/03 04:52:05;;;;;;;;;;;21.50;71.80;;;;;;5059351;28;1387;-65
2023/10/03 04:54:31;;;;;;;;;;;21.50;71.80;;;;;;5056468;28;1275;-65
2023/10/03 04:56:58;;;;;;;;;;;21.50;71.80;;;;;;5058236;28;1346;-65
2023/10/03 04:59:25;;;;;;;;;;;21.50;71.80;;;;;;5062941;28;1228;-65
2023/10/03 05:01:50;;;;;;;;;;;21.50;71.70;;;;;;5058486;28;1926;-65
2023/10/03 05:04:16;;;;;;;;;;;21.50;71.80;;;;;;5039747;28;1438;-65
2023/10/03 05:06:43;;;;;;;;;;;21.50;71.70;;;;;;5058323;28;1439;-65
2023/10/03 05:09:08;;;;;;;;;;;21.50;71.70;;;;;;5054941;28;1302;-65
2023/10/03 05:11:34;;;;;;;;;;;21.50;71.70;;;;;;5058955;28;1484;-66
2023/10/03 05:14:00;;;;;;;;;;;21.50;71.70;;;;;;5065434;28;1237;-65
2023/10/03 05:16:25;;;;;;;;;;;21.50;71.70;;;;;;5052925;28;1713;-65
2023/10/03 05:18:51;;;;;;;;;;;21.50;71.70;;;;;;5060865;28;1248;-65
2023/10/03 05:21:17;;;;;;;;;;;21.50;71.70;;;;;;5059766;28;1452;-65
2023/10/03 05:23:43;;;;;;;;;;;21.50;72.10;;;;;;5045983;28;1963;-65
2023/10/03 05:26:08;;;;;;;;;;;21.50;72.50;;;;;;5063509;28;1477;-65
2023/10/03 05:28:37;;;;;;;;;;;21.60;72.60;;;;;;5066966;28;1318;-65
2023/10/03 05:31:03;;;;;;;;;;;21.50;72.30;;;;;;5062876;28;1311;-65
2023/10/03 05:33:28;;;;;;;;;;;21.60;72.10;;;;;;5061646;28;1546;-65
2023/10/03 05:35:53;;;;;;;;;;;21.60;72.00;;;;;;5061862;28;1087;-65
2023/10/03 05:38:19;;;;;;;;;;;21.50;71.90;;;;;;5064069;28;1357;-65
2023/10/03 05:40:46;;;;;;;;;;;21.50;71.90;;;;;;5064290;28;1146;-65
2023/10/03 05:43:11;;;;;;;;;;;21.60;71.90;;;;;;5063182;28;1999;-65
2023/10/03 05:45:37;;;;;;;;;;;21.60;71.90;;;;;;5061030;28;1454;-66
2023/10/03 05:48:03;;;;;;;;;;;21.50;71.90;;;;;;5064777;28;1184;-66
2023/10/03 05:50:28;;;;;;;;;;;21.60;72.00;;;;;;5046017;28;1690;-65
2023/10/03 05:52:54;;;;;;;;;;;21.60;71.90;;;;;;5063384;28;1363;-66
2023/10/03 05:55:19;;;;;;;;;;;21.60;72.00;;;;;;5060841;28;1171;-66
2023/10/03 05:57:45;;;;;;;;;;;21.50;71.90;;;;;;5058578;28;1251;-66
2023/10/03 06:00:18;;;;;;;;;;;21.60;72.20;;;;;;5059980;28;1338;-66
2023/10/03 06:02:44;;;;;;;;;;;21.60;72.20;;;;;;5046294;28;1910;-66
2023/10/03 06:05:10;;;;;;;;;;;21.60;72.30;;;;;;5060755;28;1526;-66
2023/10/03 06:07:36;;;;;;;;;;;21.60;72.10;;;;;;5063752;28;1390;-66
2023/10/03 06:10:04;;;;;;;;;;;21.60;72.30;;;;;;5044569;28;1517;-65
2023/10/03 06:12:30;;;;;;;;;;;21.60;72.30;;;;;;5061921;28;1814;-65
2023/10/03 06:14:55;;;;;;;;;;;21.60;72.20;;;;;;5043666;28;1232;-66
2023/10/03 06:17:21;;;;;;;;;;;21.60;72.10;;;;;;5044611;28;1347;-66
2023/10/03 06:19:46;;;;;;;;;;;21.60;72.10;;;;;;5059260;28;1273;-66
2023/10/03 06:22:12;;;;;;;;;;;21.50;71.90;;;;;;5061953;28;1918;-66
2023/10/03 06:24:38;;;;;;;;;;;21.50;72.00;;;;;;5061239;28;1835;-66
2023/10/03 06:27:07;;;;;;;;;;;21.50;71.90;;;;;;5061379;28;1319;-66
2023/10/03 06:29:34;;;;;;;;;;;21.50;72.00;;;;;;5046240;28;1476;-66
2023/10/03 06:32:00;;;;;;;;;;;21.50;72.00;;;;;;5064663;28;1247;-66
2023/10/03 06:34:25;;;;;;;;;;;21.50;72.10;;;;;;5057816;28;2067;-66
2023/10/03 06:36:51;;;;;;;;;;;21.50;72.70;;;;;;5060226;28;1523;-65
2023/10/03 06:39:16;;;;;;;;;;;21.50;72.80;;;;;;5062855;28;1333;-66
2023/10/03 06:41:42;;;;;;;;;;;21.60;72.80;;;;;;5059181;28;1981;-66
2023/10/03 06:44:07;;;;;;;;;;;21.60;72.50;;;;;;5061057;28;1453;-66
2023/10/03 06:46:34;;;;;;;;;;;21.60;72.40;;;;;;5061102;28;1543;-65
2023/10/03 06:49:00;;;;;;;;;;;21.60;72.30;;;;;;5057975;28;1443;-66
2023/10/03 06:51:26;;;;;;;;;;;21.60;72.20;;;;;;5062450;28;1346;-66
2023/10/03 06:53:52;;;;;;;;;;;21.60;72.20;;;;;;5060997;28;1385;-66
2023/10/03 06:56:19;;;;;;;;;;;21.60;72.50;;;;;;5058883;28;1436;-66
2023/10/03 06:58:46;;;;;;;;;;;21.50;72.50;;;;;;5057635;28;1220;-66
2023/10/03 07:01:12;;;;;;;;;;;21.50;72.40;;;;;;5060699;28;2121;-66
2023/10/03 07:03:40;;;;;;;;;;;21.60;72.50;;;;;;5059657;28;1898;-66
2023/10/03 07:06:06;;;;;;;;;;;21.60;73.30;;;;;;5043653;28;1420;-65
2023/10/03 07:08:31;;;;;;;;;;;21.60;72.60;;;;;;5061528;28;1425;-65
2023/10/03 07:10:57;;;;;;;;;;;21.60;72.50;;;;;;5062138;28;1516;-65
2023/10/03 07:13:24;;;;;;;;;;;21.50;72.40;;;;;;5062187;28;1524;-65
2023/10/03 07:15:49;;;;;;;;;;;21.50;72.60;;;;;;5062892;28;1429;-65
2023/10/03 07:18:15;;;;;;;;;;;21.60;73.00;;;;;;5061354;28;1465;-65
2023/10/03 07:20:40;;;;;;;;;;;21.60;73.20;;;;;;5044507;28;1326;-65
2023/10/03 07:23:06;;;;;;;;;;;21.60;73.20;;;;;;5059643;28;1910;-64
2023/10/03 07:25:32;;;;;;;;;;;21.60;73.10;;;;;;5045326;28;1774;-64
2023/10/03 07:27:58;;;;;;;;;;;21.60;73.10;;;;;;5061262;28;1256;-65
2023/10/03 07:30:23;;;;;;;;;;;21.60;73.10;;;;;;5059529;28;1300;-65
2023/10/03 07:32:49;;;;;;;;;;;21.60;73.00;;;;;;5058509;28;1425;-65
2023/10/03 07:35:17;;;;;;;;;;;21.70;73.00;;;;;;5059656;28;1451;-65
2023/10/03 07:37:42;;;;;;;;;;;21.60;73.00;;;;;;5060860;28;1227;-65
2023/10/03 07:40:08;;;;;;;;;;;21.70;73.00;;;;;;5044385;28;1336;-65
2023/10/03 07:42:33;;;;;;;;;;;21.70;72.90;;;;;;5060514;28;1934;-65
2023/10/03 07:44:59;;;;;;;;;;;21.70;73.00;;;;;;5060289;28;1238;-65
2023/10/03 07:47:24;;;;;;;;;;;21.70;72.90;;;;;;5057214;28;1339;-65
2023/10/03 07:49:51;;;;;;;;;;;21.70;72.80;;;;;;5060295;28;1641;-65
2023/10/03 07:52:19;;;;;;;;;;;21.70;72.80;;;;;;5056206;28;1975;-65
2023/10/03 07:54:47;;;;;;;;;;;21.70;72.80;;;;;;5060089;28;1535;-65
2023/10/03 07:57:13;;;;;;;;;;;21.70;72.80;;;;;;5042450;28;1189;-64
2023/10/03 07:59:38;;;;;;;;;;;21.70;72.80;;;;;;5059575;28;1237;-65
2023/10/03 08:02:10;;;;;;;;;;;21.70;72.80;;;;;;5041601;28;1902;-65
2023/10/03 08:04:37;;;;;;;;;;;21.70;72.80;;;;;;5041640;28;1703;-65
2023/10/03 08:07:04;;;;;;;;;;;21.70;72.70;;;;;;5059538;28;1228;-65
2023/10/03 08:09:31;;;;;;;;;;;21.70;72.50;;;;;;5061864;28;1596;-64
2023/10/03 08:11:57;;;;;;;;;;;21.70;72.50;;;;;;5062172;28;1321;-65
2023/10/03 08:14:23;;;;;;;;;;;21.70;72.50;;;;;;5040649;28;1479;-65
2023/10/03 08:16:48;;;;;;;;;;;21.70;72.60;;;;;;5058945;28;1244;-65
2023/10/03 08:19:26;;;;;;;;;;;21.60;72.60;;;;;;5042642;28;1489;-65
2023/10/03 08:21:53;;;;;;;;;;;21.60;72.50;;;;;;5041399;28;1965;-65
2023/10/03 08:24:19;;;;;;;;;;;21.60;72.70;;;;;;5039402;28;1449;-65
2023/10/03 08:26:46;;;;;;;;;;;21.70;73.00;;;;;;5069174;22;2149;-71
2023/10/03 08:29:21;;;;;;;;;;;21.70;73.10;;;;;;5035898;28;1747;-70
2023/10/03 08:31:57;;;;;;;;;;;21.70;73.10;;;;;;5023752;28;1383;-71
2023/10/03 08:34:23;;;;;;;;;;;21.70;73.00;;;;;;5055874;28;1244;-71
2023/10/03 08:36:53;;;;;;;;;;;21.60;72.70;;;;;;5039301;28;1681;-70
2023/10/03 08:39:23;;;;;;;;;;;21.60;72.70;;;;;;5055408;28;1930;-70
2023/10/03 08:41:57;;;;;;;;;;;21.60;72.70;;;;;;5054296;28;1952;-70
2023/10/03 08:44:23;;;;;;;;;;;21.60;72.70;;;;;;5053340;28;1374;-70
2023/10/03 08:46:49;;;;;;;;;;;21.60;73.80;;;;;;5038061;28;1415;-70
2023/10/03 08:49:17;;;;;;;;;;;21.60;73.30;;;;;;5034971;28;1554;-70
2023/10/03 08:51:44;;;;;;;;;;;21.60;73.40;;;;;;5041447;28;1497;-70
2023/10/03 08:54:09;;;;;;;;;;;21.60;73.30;;;;;;5056836;28;1531;-71
2023/10/03 08:56:35;;;;;;;;;;;21.60;73.00;;;;;;5056520;28;1364;-70
2023/10/03 08:59:07;;;;;;;;;;;21.60;72.90;;;;;;5056495;28;1355;-70
2023/10/03 09:01:34;;;;;;;;;;;21.70;73.00;;;;;;5056603;28;1758;-70
2023/10/03 09:04:04;;;;;;;;;;;21.60;72.90;;;;;;5058982;28;1890;-70
2023/10/03 09:06:37;;;;;;;;;;;21.70;73.00;;;;;;5059614;28;1653;-70
2023/10/03 09:09:08;;;;;;;;;;;21.60;72.90;;;;;;5056535;28;1972;-70
2023/10/03 09:11:37;;;;;;;;;;;21.70;73.00;;;;;;5058823;28;1852;-70
2023/10/03 09:14:03;;;;;;;;;;;21.70;73.20;;;;;;5057157;28;1375;-70
2023/10/03 09:16:28;;;;;;;;;;;21.70;73.30;;;;;;5056025;28;1746;-70
2023/10/03 09:18:56;;;;;;;;;;;21.70;73.40;;;;;;5056797;28;1371;-70
2023/10/03 09:21:24;;;;;;;;;;;21.70;73.50;;;;;;5055689;28;1436;-70
2023/10/03 09:24:02;;;;;;;;;;;21.70;73.30;;;;;;5038246;28;1910;-70
2023/10/03 09:26:34;;;;;;;;;;;21.70;73.10;;;;;;5059661;28;1458;-70
2023/10/03 09:29:01;;;;;;;;;;;21.70;73.30;;;;;;5040529;28;1486;-70
2023/10/03 09:31:26;;;;;;;;;;;21.60;73.30;;;;;;5056555;28;1298;-70
2023/10/03 09:33:52;;;;;;;;;;;21.70;73.40;;;;;;5060600;28;1474;-70
2023/10/03 09:36:17;;;;;;;;;;;21.60;73.40;;;;;;5037213;28;1561;-70
2023/10/03 09:38:44;;;;;;;;;;;21.60;73.40;;;;;;5038598;28;1473;-70
2023/10/03 09:41:17;;;;;;;;;;;21.60;73.40;;;;;;5057368;28;1269;-70
2023/10/03 09:43:49;;;;;;;;;;;21.60;73.40;;;;;;5036245;28;1973;-70
2023/10/03 09:46:23;;;;;;;;;;;21.60;73.40;;;;;;5058933;28;1299;-70
2023/10/03 09:48:53;;;;;;;;;;;21.60;73.50;;;;;;5036797;28;1402;-70
2023/10/03 09:51:20;;;;;;;;;;;21.60;73.50;;;;;;5057418;28;1278;-70
2023/10/03 09:53:46;;;;;;;;;;;21.60;73.50;;;;;;5036563;28;1508;-70
2023/10/03 09:56:12;;;;;;;;;;;21.60;73.60;;;;;;5056817;28;1345;-70
2023/10/03 09:58:38;;;;;;;;;;;21.60;74.10;;;;;;5056690;28;1543;-70
2023/10/03 10:01:06;;;;;;;;;;;21.60;73.90;;;;;;5039140;28;1679;-70
2023/10/03 10:03:36;;;;;;;;;;;21.70;73.70;;;;;;5060013;28;1906;-70
2023/10/03 10:06:22;;;;;;;;;;;21.70;73.60;;;;;;5052349;28;1441;-70
2023/10/03 10:08:48;;;;;;;;;;;21.70;73.80;;;;;;5034512;28;1643;-70
2023/10/03 10:11:14;;;;;;;;;;;21.70;73.80;;;;;;5038901;28;1424;-70
2023/10/03 10:13:45;;;;;;;;;;;21.70;73.80;;;;;;5058789;28;1295;-70
2023/10/03 10:16:20;;;;;;;;;;;21.70;73.70;;;;;;5039293;28;1428;-70
2023/10/03 10:18:46;;;;;;;;;;;21.70;73.70;;;;;;5057284;28;1647;-70
2023/10/03 10:21:37;;;;;;;;;;;21.70;73.70;;;;;;5061221;28;1499;-70
2023/10/03 10:24:11;;;;;;;;;;;21.70;73.70;;;;;;5056479;28;1973;-70
2023/10/03 10:26:37;;;;;;;;;;;21.70;73.60;;;;;;5053410;28;2012;-71
2023/10/03 10:29:08;;;;;;;;;;;21.70;73.50;;;;;;5055951;28;1247;-71
2023/10/03 10:31:42;;;;;;;;;;;21.70;73.40;;;;;;5041401;28;1718;-71
2023/10/03 10:34:23;;;;;;;;;;;21.70;73.50;;;;;;5039729;28;1577;-71
2023/10/03 10:36:55;;;;;;;;;;;21.80;73.60;;;;;;5055882;28;1289;-71
2023/10/03 10:39:23;;;;;;;;;;;21.70;73.40;;;;;;5054544;28;1530;-71
2023/10/03 10:42:10;;;;;;;;;;;21.80;73.60;;;;;;5057846;28;1954;-71
2023/10/03 10:44:36;;;;;;;;;;;21.70;73.30;;;;;;5055134;28;1338;-70
2023/10/03 10:47:04;;;;;;;;;;;21.80;73.40;;;;;;5056592;28;1456;-70
2023/10/03 10:49:33;;;;;;;;;;;21.70;73.30;;;;;;5037555;28;1640;-69
2023/10/03 10:52:09;;;;;;;;;;;21.70;73.30;;;;;;5053556;28;1240;-71
2023/10/03 10:54:39;;;;;;;;;;;21.70;73.30;;;;;;5037283;28;1404;-71
2023/10/03 10:57:10;;;;;;;;;;;21.70;73.30;;;;;;5039354;28;1530;-71
2023/10/03 10:59:36;;;;;;;;;;;21.70;73.30;;;;;;5057715;28;1475;-72
2023/10/03 11:02:03;;;;;;;;;;;21.70;73.60;;;;;;5035245;28;1991;-70
2023/10/03 11:04:32;;;;;;;;;;;21.70;73.90;;;;;;5036633;28;2541;-70
2023/10/03 11:06:57;;;;;;;;;;;21.70;73.40;;;;;;5037364;28;1449;-70
2023/10/03 11:09:23;;;;;;;;;;;21.70;72.80;;;;;;5037406;28;1795;-70
2023/10/03 11:11:50;;;;;;;;;;;21.70;72.70;;;;;;5059782;28;994;-70
2023/10/03 11:14:29;;;;;;;;;;;21.70;72.40;;;;;;5041032;28;952;-70
2023/10/03 11:16:55;;;;;;;;;;;21.70;72.30;;;;;;5054902;28;1259;-70
2023/10/03 11:19:21;;;;;;;;;;;21.70;72.10;;;;;;5056505;28;1282;-70
2023/10/03 11:21:46;;;;;;;;;;;21.60;71.90;;;;;;5040813;28;939;-70
2023/10/03 11:24:16;;;;;;;;;;;21.60;71.60;;;;;;5037623;28;1965;-72
2023/10/03 11:26:48;;;;;;;;;;;21.70;71.60;;;;;;5051287;28;2439;-70
2023/10/03 11:29:15;;;;;;;;;;;21.60;71.60;;;;;;5038930;28;1293;-70
2023/10/03 11:31:41;;;;;;;;;;;21.60;71.60;;;;;;5058220;28;1364;-70
2023/10/03 11:34:06;;;;;;;;;;;21.60;71.30;;;;;;5038511;28;1193;-70
2023/10/03 11:36:42;;;;;;;;;;;21.60;71.00;;;;;;5053602;28;1362;-70
2023/10/03 11:39:08;;;;;;;;;;;21.60;71.00;;;;;;5035223;28;1486;-69
2023/10/03 11:41:33;;;;;;;;;;;21.60;71.00;;;;;;5036073;28;1684;-70
2023/10/03 11:44:00;;;;;;;;;;;21.60;71.10;;;;;;5035906;28;1903;-70
2023/10/03 11:46:25;;;;;;;;;;;21.60;70.90;;;;;;5052682;28;1472;-69
2023/10/03 11:48:57;;;;;;;;;;;21.60;70.90;;;;;;5058802;28;1425;-70
2023/10/03 11:51:23;;;;;;;;;;;21.60;71.10;;;;;;5055014;28;1498;-70
2023/10/03 11:53:49;;;;;;;;;;;21.60;71.10;;;;;;5055185;28;1245;-70
2023/10/03 11:56:14;;;;;;;;;;;21.50;71.10;;;;;;5034997;28;1392;-69
2023/10/03 11:58:39;;;;;;;;;;;21.50;71.00;;;;;;5055751;28;1347;-69
2023/10/03 12:01:05;;;;;;;;;;;21.50;70.90;;;;;;5057410;28;1233;-70
2023/10/03 12:03:31;;;;;;;;;;;21.50;70.90;;;;;;5054186;28;1894;-70
2023/10/03 12:05:57;;;;;;;;;;;21.50;70.90;;;;;;5056659;28;1504;-70
2023/10/03 12:08:23;;;;;;;;;;;21.50;70.90;;;;;;5030403;28;1427;-70
2023/10/03 12:10:49;;;;;;;;;;;21.50;70.80;;;;;;5054672;28;1314;-70
2023/10/03 12:13:15;;;;;;;;;;;21.50;70.80;;;;;;5038037;28;1484;-70
2023/10/03 12:15:45;;;;;;;;;;;21.50;70.80;;;;;;5054619;28;1317;-70
2023/10/03 12:18:11;;;;;;;;;;;21.50;70.80;;;;;;5054181;28;1378;-70
2023/10/03 12:20:38;;;;;;;;;;;21.40;70.70;;;;;;5053419;28;1703;-70
2023/10/03 12:23:04;;;;;;;;;;;21.50;70.50;;;;;;5051039;28;1985;-71
2023/10/03 12:25:29;;;;;;;;;;;21.50;70.40;;;;;;5039905;28;1734;-70
2023/10/03 12:27:55;;;;;;;;;;;21.50;70.50;;;;;;5036768;28;1543;-71
2023/10/03 12:30:20;;;;;;;;;;;21.40;70.40;;;;;;5032974;28;1580;-70
2023/10/03 12:32:46;;;;;;;;;;;21.50;70.50;;;;;;5038100;28;1444;-71
2023/10/03 12:35:12;;;;;;;;;;;21.50;70.40;;;;;;5035597;28;1369;-71
2023/10/03 12:37:38;;;;;;;;;;;21.50;70.40;;;;;;5052739;28;1774;-70
2023/10/03 12:40:13;;;;;;;;;;;21.40;70.20;;;;;;5035664;28;1502;-70
2023/10/03 12:42:43;;;;;;;;;;;21.50;70.20;;;;;;5040178;28;1922;-70
2023/10/03 12:45:12;;;;;;;;;;;21.50;70.20;;;;;;5039219;28;1478;-71
2023/10/03 12:47:39;;;;;;;;;;;21.40;70.20;;;;;;5036257;28;1683;-70
2023/10/03 12:50:06;;;;;;;;;;;21.40;70.30;;;;;;5021062;28;1160;-70
2023/10/03 12:52:32;;;;;;;;;;;21.50;70.10;;;;;;5037195;28;1347;-70
2023/10/03 12:55:00;;;;;;;;;;;21.40;70.10;;;;;;5037917;28;1383;-70
2023/10/03 12:57:25;;;;;;;;;;;21.40;69.90;;;;;;5055782;28;1355;-70
2023/10/03 12:59:54;;;;;;;;;;;21.40;70.00;;;;;;5034148;28;1640;-70
2023/10/03 13:02:19;;;;;;;;;;;21.40;70.00;;;;;;5036138;28;2209;-70
2023/10/03 13:04:46;;;;;;;;;;;21.40;69.80;;;;;;5057993;28;1233;-70
2023/10/03 13:07:12;;;;;;;;;;;21.40;70.50;;;;;;5051222;28;1312;-71
2023/10/03 13:09:40;;;;;;;;;;;21.40;69.90;;;;;;5033383;28;1873;-70
2023/10/03 13:12:08;;;;;;;;;;;21.40;70.10;;;;;;5051229;28;1348;-69
2023/10/03 13:14:33;;;;;;;;;;;21.40;70.30;;;;;;5052187;28;1404;-72
2023/10/03 13:17:01;;;;;;;;;;;21.40;70.30;;;;;;5060247;28;1307;-72
2023/10/03 13:19:30;;;;;;;;;;;21.40;70.30;;;;;;5051865;28;1892;-72
2023/10/03 13:21:56;;;;;;;;;;;21.40;70.20;;;;;;5051742;28;1965;-73
2023/10/03 13:24:22;;;;;;;;;;;21.40;70.20;;;;;;5054862;28;1390;-70
2023/10/03 13:26:47;;;;;;;;;;;21.40;70.20;;;;;;5053142;28;1943;-69
2023/10/03 13:29:13;;;;;;;;;;;21.40;70.20;;;;;;5051179;28;1546;-72
2023/10/03 13:31:38;;;;;;;;;;;21.40;70.10;;;;;;5033530;28;1932;-70
2023/10/03 13:34:05;;;;;;;;;;;21.40;70.00;;;;;;5040578;28;1540;-70
2023/10/03 13:36:30;;;;;;;;;;;21.40;70.10;;;;;;5039783;28;1673;-70
2023/10/03 13:38:57;;;;;;;;;;;21.40;70.10;;;;;;5057787;28;1099;-70
2023/10/03 13:41:23;;;;;;;;;;;21.40;70.20;;;;;;5057716;28;1375;-70
2023/10/03 13:43:49;;;;;;;;;;;21.40;70.10;;;;;;5057803;28;1906;-71
2023/10/03 13:46:16;;;;;;;;;;;21.40;70.10;;;;;;5059782;28;1379;-71
2023/10/03 13:48:42;;;;;;;;;;;21.40;70.10;;;;;;5058993;28;1334;-70
2023/10/03 13:51:07;;;;;;;;;;;21.40;70.10;;;;;;5056543;28;1279;-69
2023/10/03 13:53:33;;;;;;;;;;;21.40;70.10;;;;;;5057594;28;1449;-69
2023/10/03 13:55:59;;;;;;;;;;;21.40;70.10;;;;;;5057514;28;1141;-69
2023/10/03 13:58:24;;;;;;;;;;;21.40;70.20;;;;;;5036776;28;1299;-70
2023/10/03 14:00:51;;;;;;;;;;;21.40;70.20;;;;;;5056064;28;1240;-69
2023/10/03 14:03:20;;;;;;;;;;;21.40;70.20;;;;;;5058483;28;1957;-70
2023/10/03 14:05:45;;;;;;;;;;;21.40;70.10;;;;;;5057051;28;1445;-70
2023/10/03 14:08:11;;;;;;;;;;;21.40;70.10;;;;;;5058431;28;1303;-69
2023/10/03 14:10:45;;;;;;;;;;;21.40;70.20;;;;;;5057513;28;1222;-70
2023/10/03 14:13:12;;;;;;;;;;;21.40;70.20;;;;;;5041041;28;1013;-70
2023/10/03 14:15:38;;;;;;;;;;;21.40;70.30;;;;;;5038297;28;1474;-69
2023/10/03 14:18:05;;;;;;;;;;;21.40;70.30;;;;;;5057103;28;1461;-69
2023/10/03 14:20:30;;;;;;;;;;;21.40;70.40;;;;;;5054530;28;1361;-69
2023/10/03 14:22:57;;;;;;;;;;;21.40;70.30;;;;;;5038062;28;1890;-69
2023/10/03 14:25:22;;;;;;;;;;;21.40;70.20;;;;;;5035059;28;1185;-69
2023/10/03 14:27:48;;;;;;;;;;;21.40;70.20;;;;;;5059204;28;1408;-71
2023/10/03 14:30:13;;;;;;;;;;;21.30;70.20;;;;;;5057167;28;1274;-71
2023/10/03 14:32:42;;;;;;;;;;;21.40;70.30;;;;;;5033398;28;1418;-71
2023/10/03 14:35:07;;;;;;;;;;;21.30;70.20;;;;;;5052831;28;1318;-71
2023/10/03 14:37:33;;;;;;;;;;;21.30;70.20;;;;;;5055235;28;1521;-70